createdAt,value
2018-06-13T20:06:40.662Z,70.60
2018-06-13T20:09:12.575Z,70.50
2018-06-13T20:11:42.647Z,68.60
2018-06-13T20:14:22.827Z,68.30
2018-06-13T20:17:07.024Z,70.00
2018-06-13T20:19:43.721Z,71.40
2018-06-13T20:22:13.486Z,71.60
2018-06-13T20:25:54.969Z,72.20
2018-06-13T20:28:34.700Z,73.50
2018-06-13T20:31:09.305Z,72.90
2018-06-13T20:33:42.084Z,75.30
2018-06-13T20:36:14.339Z,74.40
2018-06-13T20:38:45.580Z,74.70
2018-06-13T20:41:15.150Z,75.80
2018-06-13T20:43:44.844Z,76.00
2018-06-13T20:48:43.480Z,76.20
2018-06-13T20:51:13.261Z,75.80
2018-06-13T20:53:43.688Z,76.20
2018-06-13T20:56:14.401Z,77.10
2018-06-13T20:58:45.022Z,77.50
2018-06-13T21:01:16.253Z,77.00
2018-06-13T21:03:47.637Z,76.40
2018-06-13T21:06:18.230Z,76.50
2018-06-13T21:08:48.780Z,77.60
2018-06-13T21:11:19.335Z,77.80
2018-06-13T21:13:51.930Z,78.20
2018-06-13T21:16:22.506Z,78.00
2018-06-13T21:18:53.182Z,78.10
2018-06-13T21:21:25.027Z,78.10
2018-06-13T21:23:56.888Z,78.20
2018-06-13T21:26:27.410Z,78.30
2018-06-13T21:28:58.049Z,78.00
2018-06-13T21:31:30.493Z,78.00
2018-06-13T21:34:00.802Z,78.30
2018-06-13T21:36:31.852Z,77.80
2018-06-13T21:39:02.627Z,78.30
2018-06-13T21:41:32.976Z,78.20
2018-06-13T21:44:03.443Z,78.20
2018-06-13T21:46:33.772Z,78.70
2018-06-13T21:49:04.072Z,78.50
2018-06-13T21:51:34.499Z,79.10
2018-06-13T21:54:04.887Z,79.80
2018-06-13T21:56:35.686Z,79.30
2018-06-13T21:59:06.003Z,78.80
2018-06-13T22:01:36.286Z,78.90
2018-06-13T22:04:06.667Z,79.50
2018-06-13T22:06:36.929Z,80.50
2018-06-13T22:09:10.491Z,80.60
2018-06-13T22:12:09.207Z,80.90
2018-06-13T22:14:42.323Z,80.50
2018-06-13T22:17:12.543Z,80.40
2018-06-13T22:22:13.675Z,80.20
2018-06-13T22:24:44.109Z,80.20
2018-06-13T22:27:14.785Z,80.40
2018-06-13T22:29:45.041Z,80.70
2018-06-13T22:32:15.640Z,80.80
2018-06-13T22:34:45.890Z,80.50
2018-06-13T22:37:16.260Z,80.20
2018-06-13T22:39:46.632Z,80.20
2018-06-13T22:42:16.915Z,80.70
2018-06-13T22:44:47.413Z,80.80
2018-06-13T22:47:18.866Z,80.70
2018-06-13T22:49:50.139Z,80.70
2018-06-13T22:52:20.430Z,80.60
2018-06-13T22:54:50.881Z,80.50
2018-06-13T22:57:21.117Z,80.10
2018-06-13T22:59:51.935Z,80.20
2018-06-13T23:02:22.169Z,80.50
2018-06-13T23:04:52.691Z,80.80
2018-06-13T23:07:22.958Z,81.30
2018-06-13T23:09:53.259Z,82.00
2018-06-13T23:12:24.035Z,81.30
2018-06-13T23:14:54.429Z,81.10
2018-06-13T23:17:24.673Z,81.10
2018-06-13T23:19:54.982Z,80.50
2018-06-13T23:22:25.264Z,79.80
2018-06-13T23:24:55.564Z,80.10
2018-06-13T23:27:25.845Z,79.70
2018-06-13T23:29:56.185Z,80.10
2018-06-13T23:32:26.501Z,80.10
2018-06-13T23:34:56.806Z,79.90
2018-06-13T23:37:27.275Z,80.50
2018-06-13T23:39:57.558Z,81.00
2018-06-13T23:42:27.857Z,81.10
2018-06-13T23:44:58.298Z,80.90
2018-06-13T23:47:28.598Z,81.00
2018-06-13T23:49:58.906Z,81.00
2018-06-13T23:52:29.189Z,80.80
2018-06-13T23:54:59.903Z,80.90
2018-06-13T23:57:30.615Z,80.40
